sensor_id;sensor_type;location;lat;lon;timestamp;temperature;humidity
29731;DHT22;16639;51.488;0.152;2023-04-16T00:01:26;8.60;99.90
29731;DHT22;16639;51.488;0.152;2023-04-16T00:03:54;8.60;99.90
29731;DHT22;16639;51.488;0.152;2023-04-16T00:06:22;8.60;99.90
29731;DHT22;16639;51.488;0.152;2023-04-16T00:08:49;8.60;99.90
29731;DHT22;16639;51.488;0.152;2023-04-16T00:11:17;8.50;99.90
29731;DHT22;16639;51.488;0.152;2023-04-16T00:13:45;8.50;99.90
29731;DHT22;16639;51.488;0.152;2023-04-16T00:16:12;8.50;99.90
29731;DHT22;16639;51.488;0.152;2023-04-16T00:18:40;8.50;99.90
29731;DHT22;16639;51.488;0.152;2023-04-16T00:21:08;8.50;99.90
29731;DHT22;16639;51.488;0.152;2023-04-16T00:23:35;8.50;99.90
29731;DHT22;16639;51.488;0.152;2023-04-16T00:26:03;8.50;99.90
29731;DHT22;16639;51.488;0.152;2023-04-16T00:28:30;8.50;99.90
29731;DHT22;16639;51.488;0.152;2023-04-16T00:30:59;8.50;99.90
29731;DHT22;16639;51.488;0.152;2023-04-16T00:33:27;8.50;99.90
29731;DHT22;16639;51.488;0.152;2023-04-16T00:35:56;8.50;99.90
29731;DHT22;16639;51.488;0.152;2023-04-16T00:38:23;8.50;99.90
29731;DHT22;16639;51.488;0.152;2023-04-16T00:40:51;8.50;99.90
29731;DHT22;16639;51.488;0.152;2023-04-16T00:43:22;8.40;99.90
29731;DHT22;16639;51.488;0.152;2023-04-16T00:45:52;8.40;99.90
29731;DHT22;16639;51.488;0.152;2023-04-16T00:48:20;8.40;99.90
29731;DHT22;16639;51.488;0.152;2023-04-16T00:50:47;8.40;99.90
29731;DHT22;16639;51.488;0.152;2023-04-16T00:53:15;8.30;99.90
29731;DHT22;16639;51.488;0.152;2023-04-16T00:55:43;8.40;99.90
29731;DHT22;16639;51.488;0.152;2023-04-16T00:58:10;8.30;99.90
29731;DHT22;16639;51.488;0.152;2023-04-16T01:00:38;8.30;99.90
29731;DHT22;16639;51.488;0.152;2023-04-16T01:03:05;8.30;99.90
29731;DHT22;16639;51.488;0.152;2023-04-16T01:05:35;8.30;99.90
29731;DHT22;16639;51.488;0.152;2023-04-16T01:08:02;8.30;99.90
29731;DHT22;16639;51.488;0.152;2023-04-16T01:10:30;8.30;99.90
29731;DHT22;16639;51.488;0.152;2023-04-16T01:12:57;8.30;99.90
29731;DHT22;16639;51.488;0.152;2023-04-16T01:15:24;8.30;99.90
29731;DHT22;16639;51.488;0.152;2023-04-16T01:17:52;8.20;99.90
29731;DHT22;16639;51.488;0.152;2023-04-16T01:20:19;8.20;99.90
29731;DHT22;16639;51.488;0.152;2023-04-16T01:22:47;8.20;99.90
29731;DHT22;16639;51.488;0.152;2023-04-16T01:25:15;8.30;99.90
29731;DHT22;16639;51.488;0.152;2023-04-16T01:27:42;8.30;99.90
29731;DHT22;16639;51.488;0.152;2023-04-16T01:30:11;9.60;99.90
29731;DHT22;16639;51.488;0.152;2023-04-16T01:32:39;8.20;99.90
29731;DHT22;16639;51.488;0.152;2023-04-16T01:35:06;8.20;99.90
29731;DHT22;16639;51.488;0.152;2023-04-16T01:37:34;8.20;99.90
29731;DHT22;16639;51.488;0.152;2023-04-16T01:40:01;8.20;99.90
29731;DHT22;16639;51.488;0.152;2023-04-16T01:42:29;8.60;99.90
29731;DHT22;16639;51.488;0.152;2023-04-16T01:44:56;8.20;99.90
29731;DHT22;16639;51.488;0.152;2023-04-16T01:47:24;8.20;99.90
29731;DHT22;16639;51.488;0.152;2023-04-16T01:49:51;8.20;99.90
29731;DHT22;16639;51.488;0.152;2023-04-16T01:52:18;8.20;99.90
29731;DHT22;16639;51.488;0.152;2023-04-16T01:54:46;8.20;99.90
29731;DHT22;16639;51.488;0.152;2023-04-16T01:57:14;8.10;99.90
29731;DHT22;16639;51.488;0.152;2023-04-16T01:59:41;8.10;99.90
29731;DHT22;16639;51.488;0.152;2023-04-16T02:02:12;8.10;99.90
29731;DHT22;16639;51.488;0.152;2023-04-16T02:04:43;7.50;99.90
29731;DHT22;16639;51.488;0.152;2023-04-16T02:07:11;8.10;99.90
29731;DHT22;16639;51.488;0.152;2023-04-16T02:09:39;8.10;99.90
29731;DHT22;16639;51.488;0.152;2023-04-16T02:12:07;7.40;99.90
29731;DHT22;16639;51.488;0.152;2023-04-16T02:14:37;8.10;99.90
29731;DHT22;16639;51.488;0.152;2023-04-16T02:17:04;8.10;99.90
29731;DHT22;16639;51.488;0.152;2023-04-16T02:19:32;8.10;99.90
29731;DHT22;16639;51.488;0.152;2023-04-16T02:21:59;8.30;99.90
29731;DHT22;16639;51.488;0.152;2023-04-16T02:24:29;8.10;99.90
29731;DHT22;16639;51.488;0.152;2023-04-16T02:26:57;8.10;99.90
29731;DHT22;16639;51.488;0.152;2023-04-16T02:29:24;8.10;99.90
29731;DHT22;16639;51.488;0.152;2023-04-16T02:31:52;8.10;99.90
29731;DHT22;16639;51.488;0.152;2023-04-16T02:34:19;8.10;99.90
29731;DHT22;16639;51.488;0.152;2023-04-16T02:36:47;8.00;99.90
29731;DHT22;16639;51.488;0.152;2023-04-16T02:39:14;8.10;99.90
29731;DHT22;16639;51.488;0.152;2023-04-16T02:41:41;8.10;99.90
29731;DHT22;16639;51.488;0.152;2023-04-16T02:44:09;8.10;99.90
29731;DHT22;16639;51.488;0.152;2023-04-16T02:46:36;8.10;99.90
29731;DHT22;16639;51.488;0.152;2023-04-16T02:49:04;8.10;99.90
29731;DHT22;16639;51.488;0.152;2023-04-16T02:51:31;8.20;99.90
29731;DHT22;16639;51.488;0.152;2023-04-16T02:53:59;8.20;99.90
29731;DHT22;16639;51.488;0.152;2023-04-16T02:56:26;8.20;99.90
29731;DHT22;16639;51.488;0.152;2023-04-16T02:58:54;8.10;99.90
29731;DHT22;16639;51.488;0.152;2023-04-16T03:01:21;8.20;99.90
29731;DHT22;16639;51.488;0.152;2023-04-16T03:03:49;7.90;99.90
29731;DHT22;16639;51.488;0.152;2023-04-16T03:06:16;8.20;99.90
29731;DHT22;16639;51.488;0.152;2023-04-16T03:08:44;8.20;99.90
29731;DHT22;16639;51.488;0.152;2023-04-16T03:11:11;8.10;99.90
29731;DHT22;16639;51.488;0.152;2023-04-16T03:13:38;8.10;99.90
29731;DHT22;16639;51.488;0.152;2023-04-16T03:16:06;8.10;99.90
29731;DHT22;16639;51.488;0.152;2023-04-16T03:18:33;8.10;99.90
29731;DHT22;16639;51.488;0.152;2023-04-16T03:21:01;8.60;99.90
29731;DHT22;16639;51.488;0.152;2023-04-16T03:23:28;8.10;99.90
29731;DHT22;16639;51.488;0.152;2023-04-16T03:25:56;8.10;99.90
29731;DHT22;16639;51.488;0.152;2023-04-16T03:28:24;8.10;99.90
29731;DHT22;16639;51.488;0.152;2023-04-16T03:30:55;8.00;99.90
29731;DHT22;16639;51.488;0.152;2023-04-16T03:33:22;8.70;99.90
29731;DHT22;16639;51.488;0.152;2023-04-16T03:35:57;7.90;99.90
29731;DHT22;16639;51.488;0.152;2023-04-16T03:38:24;8.00;99.90
29731;DHT22;16639;51.488;0.152;2023-04-16T03:40:54;8.00;99.90
29731;DHT22;16639;51.488;0.152;2023-04-16T03:43:22;8.00;99.90
29731;DHT22;16639;51.488;0.152;2023-04-16T03:45:49;8.00;99.90
29731;DHT22;16639;51.488;0.152;2023-04-16T03:48:17;8.00;99.90
29731;DHT22;16639;51.488;0.152;2023-04-16T03:50:45;8.10;99.90
29731;DHT22;16639;51.488;0.152;2023-04-16T03:53:14;8.10;99.90
29731;DHT22;16639;51.488;0.152;2023-04-16T03:55:41;8.10;99.90
29731;DHT22;16639;51.488;0.152;2023-04-16T03:58:09;9.20;99.90
29731;DHT22;16639;51.488;0.152;2023-04-16T04:00:36;8.40;99.90
29731;DHT22;16639;51.488;0.152;2023-04-16T04:03:07;8.10;99.90
29731;DHT22;16639;51.488;0.152;2023-04-16T04:05:38;8.10;99.90
29731;DHT22;16639;51.488;0.152;2023-04-16T04:08:07;8.00;99.90
29731;DHT22;16639;51.488;0.152;2023-04-16T04:10:35;8.10;99.90
29731;DHT22;16639;51.488;0.152;2023-04-16T04:13:04;8.10;99.90
29731;DHT22;16639;51.488;0.152;2023-04-16T04:15:32;8.20;99.90
29731;DHT22;16639;51.488;0.152;2023-04-16T04:17:59;8.00;99.90
29731;DHT22;16639;51.488;0.152;2023-04-16T04:20:27;8.10;99.90
29731;DHT22;16639;51.488;0.152;2023-04-16T04:22:54;8.10;99.90
29731;DHT22;16639;51.488;0.152;2023-04-16T04:25:21;8.10;99.90
29731;DHT22;16639;51.488;0.152;2023-04-16T04:27:49;8.00;99.90
29731;DHT22;16639;51.488;0.152;2023-04-16T04:30:16;8.10;99.90
29731;DHT22;16639;51.488;0.152;2023-04-16T04:32:44;8.10;99.90
29731;DHT22;16639;51.488;0.152;2023-04-16T04:35:11;8.10;99.90
29731;DHT22;16639;51.488;0.152;2023-04-16T04:37:39;8.10;99.90
29731;DHT22;16639;51.488;0.152;2023-04-16T04:40:07;8.60;99.90
29731;DHT22;16639;51.488;0.152;2023-04-16T04:42:35;8.70;99.90
29731;DHT22;16639;51.488;0.152;2023-04-16T04:45:03;8.20;99.90
29731;DHT22;16639;51.488;0.152;2023-04-16T04:47:31;9.10;99.90
29731;DHT22;16639;51.488;0.152;2023-04-16T04:49:58;8.10;99.90
29731;DHT22;16639;51.488;0.152;2023-04-16T04:52:25;8.20;99.90
29731;DHT22;16639;51.488;0.152;2023-04-16T04:54:53;8.20;99.90
29731;DHT22;16639;51.488;0.152;2023-04-16T04:57:20;8.20;99.90
29731;DHT22;16639;51.488;0.152;2023-04-16T04:59:48;8.10;99.90
29731;DHT22;16639;51.488;0.152;2023-04-16T05:02:15;8.20;99.90
29731;DHT22;16639;51.488;0.152;2023-04-16T05:04:43;8.20;99.90
29731;DHT22;16639;51.488;0.152;2023-04-16T05:07:10;8.20;99.90
29731;DHT22;16639;51.488;0.152;2023-04-16T05:09:38;8.20;99.90
29731;DHT22;16639;51.488;0.152;2023-04-16T05:12:05;8.30;99.90
29731;DHT22;16639;51.488;0.152;2023-04-16T05:14:33;8.30;99.90
29731;DHT22;16639;51.488;0.152;2023-04-16T05:17:00;8.30;99.90
29731;DHT22;16639;51.488;0.152;2023-04-16T05:19:28;8.30;99.90
29731;DHT22;16639;51.488;0.152;2023-04-16T05:21:55;9.50;99.90
29731;DHT22;16639;51.488;0.152;2023-04-16T05:24:23;9.20;99.90
29731;DHT22;16639;51.488;0.152;2023-04-16T05:26:50;8.40;99.90
29731;DHT22;16639;51.488;0.152;2023-04-16T05:29:17;8.40;99.90
29731;DHT22;16639;51.488;0.152;2023-04-16T05:31:45;8.40;99.90
29731;DHT22;16639;51.488;0.152;2023-04-16T05:34:12;8.40;99.90
29731;DHT22;16639;51.488;0.152;2023-04-16T05:36:40;8.40;99.90
29731;DHT22;16639;51.488;0.152;2023-04-16T05:39:07;8.40;99.90
29731;DHT22;16639;51.488;0.152;2023-04-16T05:41:35;8.50;99.90
29731;DHT22;16639;51.488;0.152;2023-04-16T05:44:02;8.60;99.90
29731;DHT22;16639;51.488;0.152;2023-04-16T05:46:30;8.60;99.90
29731;DHT22;16639;51.488;0.152;2023-04-16T05:48:57;8.70;99.90
29731;DHT22;16639;51.488;0.152;2023-04-16T05:51:25;8.70;99.90
29731;DHT22;16639;51.488;0.152;2023-04-16T05:53:53;8.70;99.90
29731;DHT22;16639;51.488;0.152;2023-04-16T05:56:21;8.80;99.90
29731;DHT22;16639;51.488;0.152;2023-04-16T05:58:49;8.80;99.90
29731;DHT22;16639;51.488;0.152;2023-04-16T06:01:17;8.80;99.90
29731;DHT22;16639;51.488;0.152;2023-04-16T06:03:44;8.90;99.90
29731;DHT22;16639;51.488;0.152;2023-04-16T06:06:12;8.90;99.90
29731;DHT22;16639;51.488;0.152;2023-04-16T06:08:39;9.00;99.90
29731;DHT22;16639;51.488;0.152;2023-04-16T06:11:06;9.00;99.90
29731;DHT22;16639;51.488;0.152;2023-04-16T06:13:34;6.40;99.90
29731;DHT22;16639;51.488;0.152;2023-04-16T06:16:01;9.10;99.90
29731;DHT22;16639;51.488;0.152;2023-04-16T06:18:29;9.10;99.90
29731;DHT22;16639;51.488;0.152;2023-04-16T06:20:56;9.20;99.90
29731;DHT22;16639;51.488;0.152;2023-04-16T06:23:25;9.20;99.90
29731;DHT22;16639;51.488;0.152;2023-04-16T06:25:52;9.20;99.90
29731;DHT22;16639;51.488;0.152;2023-04-16T06:28:20;9.20;99.90
29731;DHT22;16639;51.488;0.152;2023-04-16T06:30:47;8.80;99.90
29731;DHT22;16639;51.488;0.152;2023-04-16T06:33:15;9.30;99.90
29731;DHT22;16639;51.488;0.152;2023-04-16T06:35:43;8.30;99.90
29731;DHT22;16639;51.488;0.152;2023-04-16T06:38:10;9.40;99.90
29731;DHT22;16639;51.488;0.152;2023-04-16T06:40:37;9.40;99.90
29731;DHT22;16639;51.488;0.152;2023-04-16T06:43:05;9.50;99.90
29731;DHT22;16639;51.488;0.152;2023-04-16T06:45:32;9.50;99.90
29731;DHT22;16639;51.488;0.152;2023-04-16T06:48:00;9.50;99.90
29731;DHT22;16639;51.488;0.152;2023-04-16T06:50:29;9.60;99.90
29731;DHT22;16639;51.488;0.152;2023-04-16T06:52:57;9.60;99.90
29731;DHT22;16639;51.488;0.152;2023-04-16T06:55:24;9.60;99.90
29731;DHT22;16639;51.488;0.152;2023-04-16T06:57:52;9.70;99.90
29731;DHT22;16639;51.488;0.152;2023-04-16T07:00:19;9.80;99.90
29731;DHT22;16639;51.488;0.152;2023-04-16T07:02:46;9.80;99.90
29731;DHT22;16639;51.488;0.152;2023-04-16T07:05:14;9.70;99.90
29731;DHT22;16639;51.488;0.152;2023-04-16T07:07:42;10.00;99.90
29731;DHT22;16639;51.488;0.152;2023-04-16T07:10:09;10.00;99.90
29731;DHT22;16639;51.488;0.152;2023-04-16T07:12:37;10.20;99.90
29731;DHT22;16639;51.488;0.152;2023-04-16T07:15:05;10.10;99.90
29731;DHT22;16639;51.488;0.152;2023-04-16T07:17:33;10.20;99.90
29731;DHT22;16639;51.488;0.152;2023-04-16T07:20:00;10.30;99.90
29731;DHT22;16639;51.488;0.152;2023-04-16T07:22:27;10.30;99.90
29731;DHT22;16639;51.488;0.152;2023-04-16T07:24:55;10.70;99.90
29731;DHT22;16639;51.488;0.152;2023-04-16T07:27:22;10.40;99.90
29731;DHT22;16639;51.488;0.152;2023-04-16T07:29:50;10.50;99.90
29731;DHT22;16639;51.488;0.152;2023-04-16T07:32:17;10.50;99.90
29731;DHT22;16639;51.488;0.152;2023-04-16T07:34:46;10.60;99.90
29731;DHT22;16639;51.488;0.152;2023-04-16T07:37:13;10.70;99.90
29731;DHT22;16639;51.488;0.152;2023-04-16T07:39:40;10.70;99.90
29731;DHT22;16639;51.488;0.152;2023-04-16T07:42:07;10.70;99.90
29731;DHT22;16639;51.488;0.152;2023-04-16T07:44:35;10.80;99.90
29731;DHT22;16639;51.488;0.152;2023-04-16T07:47:02;10.80;99.90
29731;DHT22;16639;51.488;0.152;2023-04-16T07:49:31;10.80;99.90
29731;DHT22;16639;51.488;0.152;2023-04-16T07:51:59;10.80;99.90
29731;DHT22;16639;51.488;0.152;2023-04-16T07:54:26;10.90;99.90
29731;DHT22;16639;51.488;0.152;2023-04-16T07:56:55;10.90;99.90
29731;DHT22;16639;51.488;0.152;2023-04-16T07:59:22;10.90;99.90
29731;DHT22;16639;51.488;0.152;2023-04-16T08:01:52;10.90;99.90
29731;DHT22;16639;51.488;0.152;2023-04-16T08:04:20;11.00;99.90
29731;DHT22;16639;51.488;0.152;2023-04-16T08:06:52;11.00;99.90
29731;DHT22;16639;51.488;0.152;2023-04-16T08:09:21;11.00;99.90
29731;DHT22;16639;51.488;0.152;2023-04-16T08:11:49;11.10;99.90
29731;DHT22;16639;51.488;0.152;2023-04-16T08:14:17;11.20;99.90
29731;DHT22;16639;51.488;0.152;2023-04-16T08:16:44;11.20;99.90
29731;DHT22;16639;51.488;0.152;2023-04-16T08:19:11;11.20;99.90
29731;DHT22;16639;51.488;0.152;2023-04-16T08:21:39;11.20;99.90
29731;DHT22;16639;51.488;0.152;2023-04-16T08:24:07;11.70;99.90
29731;DHT22;16639;51.488;0.152;2023-04-16T08:26:34;11.90;99.90
29731;DHT22;16639;51.488;0.152;2023-04-16T08:29:02;11.80;99.90
29731;DHT22;16639;51.488;0.152;2023-04-16T08:31:29;11.40;99.90
29731;DHT22;16639;51.488;0.152;2023-04-16T08:33:58;11.40;99.90
29731;DHT22;16639;51.488;0.152;2023-04-16T08:36:26;11.40;99.90
29731;DHT22;16639;51.488;0.152;2023-04-16T08:38:53;11.50;99.90
29731;DHT22;16639;51.488;0.152;2023-04-16T08:41:21;11.50;99.90
29731;DHT22;16639;51.488;0.152;2023-04-16T08:43:53;11.60;99.90
29731;DHT22;16639;51.488;0.152;2023-04-16T08:46:22;11.30;99.90
29731;DHT22;16639;51.488;0.152;2023-04-16T08:48:53;11.60;99.90
29731;DHT22;16639;51.488;0.152;2023-04-16T08:51:21;11.70;99.90
29731;DHT22;16639;51.488;0.152;2023-04-16T08:53:59;11.70;99.90
29731;DHT22;16639;51.488;0.152;2023-04-16T08:56:30;11.80;99.90
29731;DHT22;16639;51.488;0.152;2023-04-16T08:58:58;12.00;99.90
29731;DHT22;16639;51.488;0.152;2023-04-16T09:01:29;12.00;99.90
29731;DHT22;16639;51.488;0.152;2023-04-16T09:03:58;12.10;99.90
29731;DHT22;16639;51.488;0.152;2023-04-16T09:06:28;12.20;99.90
29731;DHT22;16639;51.488;0.152;2023-04-16T09:08:56;12.20;99.90
29731;DHT22;16639;51.488;0.152;2023-04-16T09:11:24;12.30;99.90
29731;DHT22;16639;51.488;0.152;2023-04-16T09:13:52;12.30;99.90
29731;DHT22;16639;51.488;0.152;2023-04-16T09:16:20;12.30;99.90
29731;DHT22;16639;51.488;0.152;2023-04-16T09:18:47;12.40;99.90
29731;DHT22;16639;51.488;0.152;2023-04-16T09:21:15;12.40;99.90
29731;DHT22;16639;51.488;0.152;2023-04-16T09:23:42;12.50;99.90
29731;DHT22;16639;51.488;0.152;2023-04-16T09:26:10;12.50;99.90
29731;DHT22;16639;51.488;0.152;2023-04-16T09:31:09;12.60;99.90
29731;DHT22;16639;51.488;0.152;2023-04-16T09:33:36;12.70;99.90
29731;DHT22;16639;51.488;0.152;2023-04-16T09:36:05;12.90;99.90
29731;DHT22;16639;51.488;0.152;2023-04-16T09:38:47;13.00;99.90
29731;DHT22;16639;51.488;0.152;2023-04-16T09:41:15;13.00;99.90
29731;DHT22;16639;51.488;0.152;2023-04-16T09:44:09;13.10;99.90
29731;DHT22;16639;51.488;0.152;2023-04-16T09:46:40;13.10;99.90
29731;DHT22;16639;51.488;0.152;2023-04-16T09:49:15;13.20;99.90
29731;DHT22;16639;51.488;0.152;2023-04-16T09:51:46;13.30;99.90
29731;DHT22;16639;51.488;0.152;2023-04-16T09:54:14;13.40;99.90
29731;DHT22;16639;51.488;0.152;2023-04-16T09:56:45;13.40;99.90
29731;DHT22;16639;51.488;0.152;2023-04-16T09:59:20;13.60;99.90
29731;DHT22;16639;51.488;0.152;2023-04-16T10:01:48;13.50;99.90
29731;DHT22;16639;51.488;0.152;2023-04-16T10:04:16;13.80;99.90
29731;DHT22;16639;51.488;0.152;2023-04-16T10:06:43;13.60;99.90
29731;DHT22;16639;51.488;0.152;2023-04-16T10:09:14;13.70;99.90
29731;DHT22;16639;51.488;0.152;2023-04-16T10:11:42;13.60;99.90
29731;DHT22;16639;51.488;0.152;2023-04-16T10:14:10;13.70;99.90
29731;DHT22;16639;51.488;0.152;2023-04-16T10:16:37;13.70;99.90
29731;DHT22;16639;51.488;0.152;2023-04-16T10:19:07;13.80;99.90
29731;DHT22;16639;51.488;0.152;2023-04-16T10:21:35;13.80;99.90
29731;DHT22;16639;51.488;0.152;2023-04-16T10:24:03;13.90;99.90
29731;DHT22;16639;51.488;0.152;2023-04-16T10:26:30;13.90;99.90
29731;DHT22;16639;51.488;0.152;2023-04-16T10:28:59;14.00;99.90
29731;DHT22;16639;51.488;0.152;2023-04-16T10:31:26;14.10;99.90
29731;DHT22;16639;51.488;0.152;2023-04-16T10:33:55;14.10;99.90
29731;DHT22;16639;51.488;0.152;2023-04-16T10:36:23;14.20;99.90
29731;DHT22;16639;51.488;0.152;2023-04-16T10:38:57;14.30;99.90
29731;DHT22;16639;51.488;0.152;2023-04-16T10:41:26;14.30;99.90
29731;DHT22;16639;51.488;0.152;2023-04-16T10:44:03;14.20;99.90
29731;DHT22;16639;51.488;0.152;2023-04-16T10:46:34;14.30;99.90
29731;DHT22;16639;51.488;0.152;2023-04-16T10:49:15;14.40;99.90
29731;DHT22;16639;51.488;0.152;2023-04-16T10:51:59;14.40;99.90
29731;DHT22;16639;51.488;0.152;2023-04-16T10:54:31;14.30;99.90
29731;DHT22;16639;51.488;0.152;2023-04-16T10:57:05;14.40;99.90
29731;DHT22;16639;51.488;0.152;2023-04-16T10:59:35;14.50;99.90
29731;DHT22;16639;51.488;0.152;2023-04-16T11:02:07;14.50;99.90
29731;DHT22;16639;51.488;0.152;2023-04-16T11:04:37;14.50;99.90
29731;DHT22;16639;51.488;0.152;2023-04-16T11:09:46;14.50;99.90
29731;DHT22;16639;51.488;0.152;2023-04-16T11:12:21;14.60;99.90
29731;DHT22;16639;51.488;0.152;2023-04-16T11:14:51;14.60;99.90
29731;DHT22;16639;51.488;0.152;2023-04-16T11:17:19;14.60;99.90
29731;DHT22;16639;51.488;0.152;2023-04-16T11:19:47;14.60;99.90
29731;DHT22;16639;51.488;0.152;2023-04-16T11:22:16;14.60;99.90
29731;DHT22;16639;51.488;0.152;2023-04-16T11:24:45;14.60;99.90
29731;DHT22;16639;51.488;0.152;2023-04-16T11:27:13;14.60;99.90
29731;DHT22;16639;51.488;0.152;2023-04-16T11:29:41;14.70;99.90
29731;DHT22;16639;51.488;0.152;2023-04-16T11:32:19;14.80;99.90
29731;DHT22;16639;51.488;0.152;2023-04-16T11:34:48;14.90;99.90
29731;DHT22;16639;51.488;0.152;2023-04-16T11:37:36;14.90;99.90
29731;DHT22;16639;51.488;0.152;2023-04-16T11:40:04;14.90;99.90
29731;DHT22;16639;51.488;0.152;2023-04-16T11:42:33;14.90;99.90
29731;DHT22;16639;51.488;0.152;2023-04-16T11:45:03;14.90;99.90
29731;DHT22;16639;51.488;0.152;2023-04-16T11:47:31;14.90;99.90
29731;DHT22;16639;51.488;0.152;2023-04-16T11:50:24;15.00;99.90
29731;DHT22;16639;51.488;0.152;2023-04-16T11:52:54;15.00;99.90
29731;DHT22;16639;51.488;0.152;2023-04-16T11:55:22;15.00;99.90
29731;DHT22;16639;51.488;0.152;2023-04-16T11:57:50;15.30;99.90
29731;DHT22;16639;51.488;0.152;2023-04-16T12:00:19;15.20;99.90
29731;DHT22;16639;51.488;0.152;2023-04-16T12:02:52;15.20;99.90
29731;DHT22;16639;51.488;0.152;2023-04-16T12:05:37;15.30;99.90
29731;DHT22;16639;51.488;0.152;2023-04-16T12:08:07;15.30;99.90
29731;DHT22;16639;51.488;0.152;2023-04-16T12:10:37;15.30;99.90
29731;DHT22;16639;51.488;0.152;2023-04-16T12:13:18;15.30;99.90
29731;DHT22;16639;51.488;0.152;2023-04-16T12:15:51;15.30;99.90
29731;DHT22;16639;51.488;0.152;2023-04-16T12:18:21;15.30;99.90
29731;DHT22;16639;51.488;0.152;2023-04-16T12:20:49;15.20;99.90
29731;DHT22;16639;51.488;0.152;2023-04-16T12:23:27;15.10;99.90
29731;DHT22;16639;51.488;0.152;2023-04-16T12:25:55;15.30;99.90
29731;DHT22;16639;51.488;0.152;2023-04-16T12:28:35;15.20;99.90
29731;DHT22;16639;51.488;0.152;2023-04-16T12:31:06;15.40;99.90
29731;DHT22;16639;51.488;0.152;2023-04-16T12:33:33;15.40;99.90
29731;DHT22;16639;51.488;0.152;2023-04-16T12:36:18;15.40;99.90
29731;DHT22;16639;51.488;0.152;2023-04-16T12:38:46;15.50;99.90
29731;DHT22;16639;51.488;0.152;2023-04-16T12:41:13;15.50;99.90
29731;DHT22;16639;51.488;0.152;2023-04-16T12:43:41;15.50;99.90
29731;DHT22;16639;51.488;0.152;2023-04-16T12:46:08;15.40;99.90
29731;DHT22;16639;51.488;0.152;2023-04-16T12:48:36;15.50;99.90
29731;DHT22;16639;51.488;0.152;2023-04-16T12:51:04;15.50;99.90
29731;DHT22;16639;51.488;0.152;2023-04-16T12:53:32;15.50;99.90
29731;DHT22;16639;51.488;0.152;2023-04-16T12:55:59;15.50;99.90
29731;DHT22;16639;51.488;0.152;2023-04-16T12:58:26;15.50;99.90
29731;DHT22;16639;51.488;0.152;2023-04-16T13:00:54;15.40;99.90
29731;DHT22;16639;51.488;0.152;2023-04-16T13:03:22;15.40;99.90
29731;DHT22;16639;51.488;0.152;2023-04-16T13:05:50;15.40;99.90
29731;DHT22;16639;51.488;0.152;2023-04-16T13:08:18;15.40;99.90
29731;DHT22;16639;51.488;0.152;2023-04-16T13:10:46;15.40;99.90
29731;DHT22;16639;51.488;0.152;2023-04-16T13:13:13;15.40;99.90
29731;DHT22;16639;51.488;0.152;2023-04-16T13:15:42;15.40;99.90
29731;DHT22;16639;51.488;0.152;2023-04-16T13:18:09;15.50;99.90
29731;DHT22;16639;51.488;0.152;2023-04-16T13:20:37;15.40;99.90
29731;DHT22;16639;51.488;0.152;2023-04-16T13:23:05;15.50;99.90
29731;DHT22;16639;51.488;0.152;2023-04-16T13:25:32;15.50;99.90
29731;DHT22;16639;51.488;0.152;2023-04-16T13:28:00;15.50;99.90
29731;DHT22;16639;51.488;0.152;2023-04-16T13:30:28;15.40;99.90
29731;DHT22;16639;51.488;0.152;2023-04-16T13:32:58;15.40;99.90
29731;DHT22;16639;51.488;0.152;2023-04-16T13:35:26;15.30;99.90
29731;DHT22;16639;51.488;0.152;2023-04-16T13:37:54;15.30;99.90
29731;DHT22;16639;51.488;0.152;2023-04-16T13:40:22;15.30;99.90
29731;DHT22;16639;51.488;0.152;2023-04-16T13:42:49;15.30;99.90
29731;DHT22;16639;51.488;0.152;2023-04-16T13:45:17;15.30;99.90
29731;DHT22;16639;51.488;0.152;2023-04-16T13:47:46;15.40;99.90
29731;DHT22;16639;51.488;0.152;2023-04-16T13:50:15;15.40;99.90
29731;DHT22;16639;51.488;0.152;2023-04-16T13:52:42;16.10;99.90
29731;DHT22;16639;51.488;0.152;2023-04-16T13:55:09;15.50;99.90
29731;DHT22;16639;51.488;0.152;2023-04-16T13:57:40;15.50;99.90
29731;DHT22;16639;51.488;0.152;2023-04-16T14:00:07;15.50;99.90
29731;DHT22;16639;51.488;0.152;2023-04-16T14:02:40;15.60;99.90
29731;DHT22;16639;51.488;0.152;2023-04-16T14:05:08;15.50;99.90
29731;DHT22;16639;51.488;0.152;2023-04-16T14:07:36;15.60;99.90
29731;DHT22;16639;51.488;0.152;2023-04-16T14:10:04;15.60;99.90
29731;DHT22;16639;51.488;0.152;2023-04-16T14:12:32;15.60;99.90
29731;DHT22;16639;51.488;0.152;2023-04-16T14:14:59;15.70;99.90
29731;DHT22;16639;51.488;0.152;2023-04-16T14:17:28;15.70;99.90
29731;DHT22;16639;51.488;0.152;2023-04-16T14:19:56;15.80;99.90
29731;DHT22;16639;51.488;0.152;2023-04-16T14:22:23;15.80;99.90
29731;DHT22;16639;51.488;0.152;2023-04-16T14:24:50;15.90;99.90
29731;DHT22;16639;51.488;0.152;2023-04-16T14:27:18;16.00;99.90
29731;DHT22;16639;51.488;0.152;2023-04-16T14:29:45;16.10;99.90
29731;DHT22;16639;51.488;0.152;2023-04-16T14:32:13;16.10;99.90
29731;DHT22;16639;51.488;0.152;2023-04-16T14:34:41;16.10;99.90
29731;DHT22;16639;51.488;0.152;2023-04-16T14:37:08;16.20;99.90
29731;DHT22;16639;51.488;0.152;2023-04-16T14:39:36;16.20;99.90
29731;DHT22;16639;51.488;0.152;2023-04-16T14:42:05;16.20;99.90
29731;DHT22;16639;51.488;0.152;2023-04-16T14:44:33;16.20;99.90
29731;DHT22;16639;51.488;0.152;2023-04-16T14:47:00;16.20;99.90
29731;DHT22;16639;51.488;0.152;2023-04-16T14:49:27;16.10;99.90
29731;DHT22;16639;51.488;0.152;2023-04-16T14:51:55;16.10;99.90
29731;DHT22;16639;51.488;0.152;2023-04-16T14:54:23;16.10;99.90
29731;DHT22;16639;51.488;0.152;2023-04-16T14:56:50;16.10;99.90
29731;DHT22;16639;51.488;0.152;2023-04-16T14:59:17;16.00;99.90
29731;DHT22;16639;51.488;0.152;2023-04-16T15:01:45;16.10;99.90
29731;DHT22;16639;51.488;0.152;2023-04-16T15:04:13;16.00;99.90
29731;DHT22;16639;51.488;0.152;2023-04-16T15:06:41;16.00;99.90
29731;DHT22;16639;51.488;0.152;2023-04-16T15:09:08;15.90;99.90
29731;DHT22;16639;51.488;0.152;2023-04-16T15:11:36;15.90;99.90
29731;DHT22;16639;51.488;0.152;2023-04-16T15:14:03;15.80;99.90
29731;DHT22;16639;51.488;0.152;2023-04-16T15:16:31;16.00;99.90
29731;DHT22;16639;51.488;0.152;2023-04-16T15:18:59;15.80;99.90
29731;DHT22;16639;51.488;0.152;2023-04-16T15:21:28;15.80;99.90
29731;DHT22;16639;51.488;0.152;2023-04-16T15:23:55;15.80;99.90
29731;DHT22;16639;51.488;0.152;2023-04-16T15:26:22;15.80;99.90
29731;DHT22;16639;51.488;0.152;2023-04-16T15:28:50;16.20;99.90
29731;DHT22;16639;51.488;0.152;2023-04-16T15:31:17;15.80;99.90
29731;DHT22;16639;51.488;0.152;2023-04-16T15:33:47;15.80;99.90
29731;DHT22;16639;51.488;0.152;2023-04-16T15:36:15;15.80;99.90
29731;DHT22;16639;51.488;0.152;2023-04-16T15:38:42;15.60;99.90
29731;DHT22;16639;51.488;0.152;2023-04-16T15:41:10;15.80;99.90
29731;DHT22;16639;51.488;0.152;2023-04-16T15:43:37;15.70;99.90
29731;DHT22;16639;51.488;0.152;2023-04-16T15:46:05;15.70;99.90
29731;DHT22;16639;51.488;0.152;2023-04-16T15:48:42;15.70;99.90
29731;DHT22;16639;51.488;0.152;2023-04-16T15:51:16;15.70;99.90